<?xml version="1.0" encoding="UTF-8" standalone="no" ?>
<gpx xmlns="http://www.topografix.com/GPX/1/1" xmlns:xsi="http://www.w3.org/2001/XMLSchema-instance" xsi:schemaLocation="http://www.topografix.com/GPX/1/1 http://www.topografix.com/GPX/1/1/gpx.xsd" version="1.1" creator="VisuGPX - https://www.visugpx.com">
  <metadata>
    <name>Lizio 9km</name>
    <desc><![CDATA[circuit varié, boisé,]]></desc>
  </metadata>
  <trk>
    <name><![CDATA[lizio apres midi]]></name>
    <desc><![CDATA[<h1>OruxMaps</h1><br /><hr align="center" width="480" style="height: 2px; width: 517px"/><h2>Nom: lizio apres midi</h2><br /><p>Temps de départ: 03/13/2015 14:01</p><p>Temps d'arrivée: 03/13/2015 16:54</p><p>Distance: 9,1km (02:52)</p><p>Temps déplacement: 01:24</p><p>Vitesse moyenne: 3,2km/h</p><p>Vitesse moyenne: 6,5km/h</p><p>Vitess Max.: 12,8km/h</p><p>Altitude minimale: 83m</p><p>Altitude maximale: 145m</p><p>Vitesse d'élévation: 197,8m/h</p><p>Vitesse de descente: -144m/h</p><p>Gain Altitude: 190m</p><p>Perte Altitude: -197m</p><p>Temps d'élévation: 00:57</p><p>Temps de descente: 01:22</p><hr align="center" width="480" style="height: 2px; width: 517px"/>]]></desc>
    <trkseg>
      <trkpt lat="47.86426" lon="-2.52284">
        <ele>135.94</ele>
        <time>2015-03-13T13:01:42Z</time>
      </trkpt>
      <trkpt lat="47.86444" lon="-2.52279">
        <ele>115.97</ele>
        <time>2015-03-13T13:03:48Z</time>
      </trkpt>
      <trkpt lat="47.86452" lon="-2.52251">
        <ele>119.35</ele>
        <time>2015-03-13T13:04:03Z</time>
      </trkpt>
      <trkpt lat="47.86453" lon="-2.52224">
        <ele>122.71</ele>
        <time>2015-03-13T13:04:19Z</time>
      </trkpt>
      <trkpt lat="47.86457" lon="-2.52197">
        <ele>124.73</ele>
        <time>2015-03-13T13:04:35Z</time>
      </trkpt>
      <trkpt lat="47.86459" lon="-2.52168">
        <ele>123.02</ele>
        <time>2015-03-13T13:04:53Z</time>
      </trkpt>
      <trkpt lat="47.86461" lon="-2.5214">
        <ele>121.15</ele>
        <time>2015-03-13T13:05:11Z</time>
      </trkpt>
      <trkpt lat="47.86464" lon="-2.52113">
        <ele>119.5</ele>
        <time>2015-03-13T13:05:28Z</time>
      </trkpt>
      <trkpt lat="47.86467" lon="-2.52085">
        <ele>117.74</ele>
        <time>2015-03-13T13:05:43Z</time>
      </trkpt>
      <trkpt lat="47.86472" lon="-2.52057">
        <ele>117.26</ele>
        <time>2015-03-13T13:05:58Z</time>
      </trkpt>
      <trkpt lat="47.86472" lon="-2.5203">
        <ele>115.45</ele>
        <time>2015-03-13T13:06:12Z</time>
      </trkpt>
      <trkpt lat="47.86475" lon="-2.52001">
        <ele>114.27</ele>
        <time>2015-03-13T13:06:29Z</time>
      </trkpt>
      <trkpt lat="47.86475" lon="-2.51971">
        <ele>111.94</ele>
        <time>2015-03-13T13:06:43Z</time>
      </trkpt>
      <trkpt lat="47.86477" lon="-2.51944">
        <ele>109</ele>
        <time>2015-03-13T13:07:01Z</time>
      </trkpt>
      <trkpt lat="47.8648" lon="-2.51917">
        <ele>108.24</ele>
        <time>2015-03-13T13:07:17Z</time>
      </trkpt>
      <trkpt lat="47.86479" lon="-2.51889">
        <ele>108.63</ele>
        <time>2015-03-13T13:07:34Z</time>
      </trkpt>
      <trkpt lat="47.86484" lon="-2.51862">
        <ele>108.27</ele>
        <time>2015-03-13T13:07:51Z</time>
      </trkpt>
      <trkpt lat="47.86485" lon="-2.51834">
        <ele>107.03</ele>
        <time>2015-03-13T13:08:13Z</time>
      </trkpt>
      <trkpt lat="47.8649" lon="-2.51806">
        <ele>107.34</ele>
        <time>2015-03-13T13:08:26Z</time>
      </trkpt>
      <trkpt lat="47.86495" lon="-2.51778">
        <ele>108.04</ele>
        <time>2015-03-13T13:08:39Z</time>
      </trkpt>
      <trkpt lat="47.86498" lon="-2.51751">
        <ele>107.42</ele>
        <time>2015-03-13T13:08:54Z</time>
      </trkpt>
      <trkpt lat="47.86506" lon="-2.51726">
        <ele>104.76</ele>
        <time>2015-03-13T13:09:12Z</time>
      </trkpt>
      <trkpt lat="47.86515" lon="-2.51702">
        <ele>100.72</ele>
        <time>2015-03-13T13:09:29Z</time>
      </trkpt>
      <trkpt lat="47.86528" lon="-2.51682">
        <ele>96.85</ele>
        <time>2015-03-13T13:09:44Z</time>
      </trkpt>
      <trkpt lat="47.86541" lon="-2.51663">
        <ele>93.49</ele>
        <time>2015-03-13T13:09:58Z</time>
      </trkpt>
      <trkpt lat="47.86556" lon="-2.51645">
        <ele>88.93</ele>
        <time>2015-03-13T13:10:14Z</time>
      </trkpt>
      <trkpt lat="47.86572" lon="-2.51632">
        <ele>83.96</ele>
        <time>2015-03-13T13:10:29Z</time>
      </trkpt>
      <trkpt lat="47.86592" lon="-2.51633">
        <ele>88.12</ele>
        <time>2015-03-13T13:11:07Z</time>
      </trkpt>
      <trkpt lat="47.86609" lon="-2.51625">
        <ele>86.04</ele>
        <time>2015-03-13T13:11:33Z</time>
      </trkpt>
      <trkpt lat="47.86627" lon="-2.51618">
        <ele>85.19</ele>
        <time>2015-03-13T13:11:47Z</time>
      </trkpt>
      <trkpt lat="47.86645" lon="-2.51623">
        <ele>84.24</ele>
        <time>2015-03-13T13:12:08Z</time>
      </trkpt>
      <trkpt lat="47.86662" lon="-2.51635">
        <ele>83.06</ele>
        <time>2015-03-13T13:12:27Z</time>
      </trkpt>
      <trkpt lat="47.86671" lon="-2.51659">
        <ele>86.64</ele>
        <time>2015-03-13T13:12:40Z</time>
      </trkpt>
      <trkpt lat="47.86688" lon="-2.51672">
        <ele>91.57</ele>
        <time>2015-03-13T13:12:59Z</time>
      </trkpt>
      <trkpt lat="47.86704" lon="-2.51686">
        <ele>92.03</ele>
        <time>2015-03-13T13:13:16Z</time>
      </trkpt>
      <trkpt lat="47.86722" lon="-2.51693">
        <ele>92.02</ele>
        <time>2015-03-13T13:13:31Z</time>
      </trkpt>
      <trkpt lat="47.86735" lon="-2.51713">
        <ele>89.74</ele>
        <time>2015-03-13T13:13:51Z</time>
      </trkpt>
      <trkpt lat="47.86752" lon="-2.51727">
        <ele>87.49</ele>
        <time>2015-03-13T13:15:15Z</time>
      </trkpt>
      <trkpt lat="47.8677" lon="-2.51729">
        <ele>86.25</ele>
        <time>2015-03-13T13:15:28Z</time>
      </trkpt>
      <trkpt lat="47.86788" lon="-2.5172">
        <ele>86.37</ele>
        <time>2015-03-13T13:15:39Z</time>
      </trkpt>
      <trkpt lat="47.86808" lon="-2.51718">
        <ele>86.46</ele>
        <time>2015-03-13T13:15:47Z</time>
      </trkpt>
      <trkpt lat="47.86826" lon="-2.51717">
        <ele>84.84</ele>
        <time>2015-03-13T13:16:16Z</time>
      </trkpt>
      <trkpt lat="47.86843" lon="-2.51728">
        <ele>85.62</ele>
        <time>2015-03-13T13:16:38Z</time>
      </trkpt>
      <trkpt lat="47.86861" lon="-2.51738">
        <ele>89.82</ele>
        <time>2015-03-13T13:16:49Z</time>
      </trkpt>
      <trkpt lat="47.86878" lon="-2.51753">
        <ele>92.5</ele>
        <time>2015-03-13T13:17:04Z</time>
      </trkpt>
      <trkpt lat="47.86894" lon="-2.51767">
        <ele>95.28</ele>
        <time>2015-03-13T13:17:15Z</time>
      </trkpt>
      <trkpt lat="47.8691" lon="-2.5175">
        <ele>98.88</ele>
        <time>2015-03-13T13:17:46Z</time>
      </trkpt>
      <trkpt lat="47.86928" lon="-2.51754">
        <ele>97.04</ele>
        <time>2015-03-13T13:18:03Z</time>
      </trkpt>
      <trkpt lat="47.86945" lon="-2.51768">
        <ele>96.81</ele>
        <time>2015-03-13T13:18:09Z</time>
      </trkpt>
      <trkpt lat="47.86962" lon="-2.51781">
        <ele>95.87</ele>
        <time>2015-03-13T13:18:25Z</time>
      </trkpt>
      <trkpt lat="47.86977" lon="-2.51798">
        <ele>96.16</ele>
        <time>2015-03-13T13:18:36Z</time>
      </trkpt>
      <trkpt lat="47.86996" lon="-2.51809">
        <ele>98.61</ele>
        <time>2015-03-13T13:18:59Z</time>
      </trkpt>
      <trkpt lat="47.87015" lon="-2.51813">
        <ele>100.48</ele>
        <time>2015-03-13T13:19:15Z</time>
      </trkpt>
      <trkpt lat="47.87034" lon="-2.51817">
        <ele>101.88</ele>
        <time>2015-03-13T13:19:27Z</time>
      </trkpt>
      <trkpt lat="47.87053" lon="-2.51813">
        <ele>102.93</ele>
        <time>2015-03-13T13:19:40Z</time>
      </trkpt>
      <trkpt lat="47.87072" lon="-2.51814">
        <ele>101.98</ele>
        <time>2015-03-13T13:19:55Z</time>
      </trkpt>
      <trkpt lat="47.87088" lon="-2.5183">
        <ele>101.38</ele>
        <time>2015-03-13T13:20:08Z</time>
      </trkpt>
      <trkpt lat="47.87106" lon="-2.51824">
        <ele>101.09</ele>
        <time>2015-03-13T13:20:22Z</time>
      </trkpt>
      <trkpt lat="47.87121" lon="-2.51842">
        <ele>100.54</ele>
        <time>2015-03-13T13:20:41Z</time>
      </trkpt>
      <trkpt lat="47.87131" lon="-2.51866">
        <ele>100.47</ele>
        <time>2015-03-13T13:20:58Z</time>
      </trkpt>
      <trkpt lat="47.87142" lon="-2.51888">
        <ele>99.99</ele>
        <time>2015-03-13T13:21:13Z</time>
      </trkpt>
      <trkpt lat="47.8715" lon="-2.51913">
        <ele>94.98</ele>
        <time>2015-03-13T13:21:32Z</time>
      </trkpt>
      <trkpt lat="47.87151" lon="-2.51941">
        <ele>91.37</ele>
        <time>2015-03-13T13:21:51Z</time>
      </trkpt>
      <trkpt lat="47.87153" lon="-2.51972">
        <ele>91.09</ele>
        <time>2015-03-13T13:22:13Z</time>
      </trkpt>
      <trkpt lat="47.87152" lon="-2.52002">
        <ele>91.6</ele>
        <time>2015-03-13T13:22:20Z</time>
      </trkpt>
      <trkpt lat="47.87147" lon="-2.52029">
        <ele>92.56</ele>
        <time>2015-03-13T13:22:28Z</time>
      </trkpt>
      <trkpt lat="47.87145" lon="-2.52056">
        <ele>95.29</ele>
        <time>2015-03-13T13:22:48Z</time>
      </trkpt>
      <trkpt lat="47.87145" lon="-2.52084">
        <ele>96.24</ele>
        <time>2015-03-13T13:23:03Z</time>
      </trkpt>
      <trkpt lat="47.87158" lon="-2.52104">
        <ele>97.53</ele>
        <time>2015-03-13T13:23:29Z</time>
      </trkpt>
      <trkpt lat="47.87168" lon="-2.5213">
        <ele>99.45</ele>
        <time>2015-03-13T13:23:36Z</time>
      </trkpt>
      <trkpt lat="47.87176" lon="-2.52154">
        <ele>101.29</ele>
        <time>2015-03-13T13:23:53Z</time>
      </trkpt>
      <trkpt lat="47.87194" lon="-2.52162">
        <ele>97.18</ele>
        <time>2015-03-13T13:24:51Z</time>
      </trkpt>
      <trkpt lat="47.87211" lon="-2.52151">
        <ele>93.07</ele>
        <time>2015-03-13T13:25:05Z</time>
      </trkpt>
      <trkpt lat="47.87224" lon="-2.5213">
        <ele>91.68</ele>
        <time>2015-03-13T13:25:16Z</time>
      </trkpt>
      <trkpt lat="47.87238" lon="-2.52113">
        <ele>94.93</ele>
        <time>2015-03-13T13:25:24Z</time>
      </trkpt>
      <trkpt lat="47.87253" lon="-2.52093">
        <ele>97.22</ele>
        <time>2015-03-13T13:25:30Z</time>
      </trkpt>
      <trkpt lat="47.87267" lon="-2.52074">
        <ele>100.16</ele>
        <time>2015-03-13T13:25:40Z</time>
      </trkpt>
      <trkpt lat="47.8728" lon="-2.52054">
        <ele>106.01</ele>
        <time>2015-03-13T13:25:58Z</time>
      </trkpt>
      <trkpt lat="47.87289" lon="-2.52031">
        <ele>110.67</ele>
        <time>2015-03-13T13:26:15Z</time>
      </trkpt>
      <trkpt lat="47.87305" lon="-2.52016">
        <ele>115.8</ele>
        <time>2015-03-13T13:26:58Z</time>
      </trkpt>
      <trkpt lat="47.87324" lon="-2.52001">
        <ele>120.11</ele>
        <time>2015-03-13T13:27:31Z</time>
      </trkpt>
      <trkpt lat="47.87344" lon="-2.51999">
        <ele>122.5</ele>
        <time>2015-03-13T13:28:22Z</time>
      </trkpt>
      <trkpt lat="47.87368" lon="-2.52001">
        <ele>122.57</ele>
        <time>2015-03-13T13:28:24Z</time>
      </trkpt>
      <trkpt lat="47.8739" lon="-2.52007">
        <ele>122.84</ele>
        <time>2015-03-13T13:28:38Z</time>
      </trkpt>
      <trkpt lat="47.87412" lon="-2.5201">
        <ele>123.45</ele>
        <time>2015-03-13T13:28:58Z</time>
      </trkpt>
      <trkpt lat="47.87437" lon="-2.52013">
        <ele>123.58</ele>
        <time>2015-03-13T13:29:01Z</time>
      </trkpt>
      <trkpt lat="47.87454" lon="-2.5202">
        <ele>123.89</ele>
        <time>2015-03-13T13:29:04Z</time>
      </trkpt>
      <trkpt lat="47.87472" lon="-2.52022">
        <ele>125.19</ele>
        <time>2015-03-13T13:29:19Z</time>
      </trkpt>
      <trkpt lat="47.87493" lon="-2.5202">
        <ele>125.69</ele>
        <time>2015-03-13T13:29:25Z</time>
      </trkpt>
      <trkpt lat="47.87511" lon="-2.52019">
        <ele>126.62</ele>
        <time>2015-03-13T13:29:41Z</time>
      </trkpt>
      <trkpt lat="47.87531" lon="-2.52011">
        <ele>125.53</ele>
        <time>2015-03-13T13:30:05Z</time>
      </trkpt>
      <trkpt lat="47.87549" lon="-2.52001">
        <ele>124.64</ele>
        <time>2015-03-13T13:30:09Z</time>
      </trkpt>
      <trkpt lat="47.87566" lon="-2.51988">
        <ele>122.95</ele>
        <time>2015-03-13T13:30:17Z</time>
      </trkpt>
      <trkpt lat="47.87582" lon="-2.51975">
        <ele>121.81</ele>
        <time>2015-03-13T13:30:29Z</time>
      </trkpt>
      <trkpt lat="47.87592" lon="-2.51952">
        <ele>119</ele>
        <time>2015-03-13T13:30:47Z</time>
      </trkpt>
      <trkpt lat="47.87601" lon="-2.51928">
        <ele>118.25</ele>
        <time>2015-03-13T13:31:02Z</time>
      </trkpt>
      <trkpt lat="47.87611" lon="-2.51904">
        <ele>119.16</ele>
        <time>2015-03-13T13:31:20Z</time>
      </trkpt>
      <trkpt lat="47.87622" lon="-2.51881">
        <ele>118.92</ele>
        <time>2015-03-13T13:31:38Z</time>
      </trkpt>
      <trkpt lat="47.8763" lon="-2.51856">
        <ele>118.16</ele>
        <time>2015-03-13T13:32:01Z</time>
      </trkpt>
      <trkpt lat="47.87637" lon="-2.51832">
        <ele>118.57</ele>
        <time>2015-03-13T13:32:14Z</time>
      </trkpt>
      <trkpt lat="47.8765" lon="-2.51811">
        <ele>119.44</ele>
        <time>2015-03-13T13:32:34Z</time>
      </trkpt>
      <trkpt lat="47.87667" lon="-2.51801">
        <ele>119.41</ele>
        <time>2015-03-13T13:33:02Z</time>
      </trkpt>
      <trkpt lat="47.87686" lon="-2.51792">
        <ele>119.73</ele>
        <time>2015-03-13T13:33:13Z</time>
      </trkpt>
      <trkpt lat="47.87704" lon="-2.51797">
        <ele>119.63</ele>
        <time>2015-03-13T13:33:33Z</time>
      </trkpt>
      <trkpt lat="47.8772" lon="-2.51784">
        <ele>118.91</ele>
        <time>2015-03-13T13:34:11Z</time>
      </trkpt>
      <trkpt lat="47.87735" lon="-2.51766">
        <ele>120.16</ele>
        <time>2015-03-13T13:34:25Z</time>
      </trkpt>
      <trkpt lat="47.87749" lon="-2.51748">
        <ele>120.39</ele>
        <time>2015-03-13T13:34:40Z</time>
      </trkpt>
      <trkpt lat="47.8776" lon="-2.51726">
        <ele>120.27</ele>
        <time>2015-03-13T13:34:56Z</time>
      </trkpt>
      <trkpt lat="47.87762" lon="-2.51699">
        <ele>119.54</ele>
        <time>2015-03-13T13:35:15Z</time>
      </trkpt>
      <trkpt lat="47.8776" lon="-2.51671">
        <ele>119.57</ele>
        <time>2015-03-13T13:35:32Z</time>
      </trkpt>
      <trkpt lat="47.87759" lon="-2.51642">
        <ele>119.74</ele>
        <time>2015-03-13T13:35:49Z</time>
      </trkpt>
      <trkpt lat="47.87762" lon="-2.51614">
        <ele>121.14</ele>
        <time>2015-03-13T13:36:05Z</time>
      </trkpt>
      <trkpt lat="47.8778" lon="-2.51614">
        <ele>120.81</ele>
        <time>2015-03-13T13:36:23Z</time>
      </trkpt>
      <trkpt lat="47.87798" lon="-2.51617">
        <ele>120.72</ele>
        <time>2015-03-13T13:36:39Z</time>
      </trkpt>
      <trkpt lat="47.87816" lon="-2.51621">
        <ele>120.8</ele>
        <time>2015-03-13T13:36:55Z</time>
      </trkpt>
      <trkpt lat="47.87835" lon="-2.51621">
        <ele>120.38</ele>
        <time>2015-03-13T13:37:11Z</time>
      </trkpt>
      <trkpt lat="47.87853" lon="-2.51624">
        <ele>120.35</ele>
        <time>2015-03-13T13:37:27Z</time>
      </trkpt>
      <trkpt lat="47.87871" lon="-2.51626">
        <ele>120.37</ele>
        <time>2015-03-13T13:37:42Z</time>
      </trkpt>
      <trkpt lat="47.8789" lon="-2.51621">
        <ele>120.45</ele>
        <time>2015-03-13T13:37:55Z</time>
      </trkpt>
      <trkpt lat="47.87908" lon="-2.51614">
        <ele>120.01</ele>
        <time>2015-03-13T13:38:12Z</time>
      </trkpt>
      <trkpt lat="47.87923" lon="-2.516">
        <ele>120.31</ele>
        <time>2015-03-13T13:38:25Z</time>
      </trkpt>
      <trkpt lat="47.87941" lon="-2.51592">
        <ele>120.85</ele>
        <time>2015-03-13T13:38:42Z</time>
      </trkpt>
      <trkpt lat="47.87955" lon="-2.51612">
        <ele>121.29</ele>
        <time>2015-03-13T13:38:54Z</time>
      </trkpt>
      <trkpt lat="47.87965" lon="-2.51634">
        <ele>121.99</ele>
        <time>2015-03-13T13:39:09Z</time>
      </trkpt>
      <trkpt lat="47.87976" lon="-2.51657">
        <ele>121.95</ele>
        <time>2015-03-13T13:39:26Z</time>
      </trkpt>
      <trkpt lat="47.87987" lon="-2.51678">
        <ele>121.42</ele>
        <time>2015-03-13T13:39:41Z</time>
      </trkpt>
      <trkpt lat="47.87999" lon="-2.51701">
        <ele>121.07</ele>
        <time>2015-03-13T13:39:58Z</time>
      </trkpt>
      <trkpt lat="47.88011" lon="-2.51721">
        <ele>120.82</ele>
        <time>2015-03-13T13:40:12Z</time>
      </trkpt>
      <trkpt lat="47.88019" lon="-2.51745">
        <ele>121.27</ele>
        <time>2015-03-13T13:40:27Z</time>
      </trkpt>
      <trkpt lat="47.88028" lon="-2.5177">
        <ele>122.55</ele>
        <time>2015-03-13T13:40:40Z</time>
      </trkpt>
      <trkpt lat="47.88032" lon="-2.51797">
        <ele>124.06</ele>
        <time>2015-03-13T13:40:55Z</time>
      </trkpt>
      <trkpt lat="47.88033" lon="-2.51824">
        <ele>124.8</ele>
        <time>2015-03-13T13:41:09Z</time>
      </trkpt>
      <trkpt lat="47.88036" lon="-2.51851">
        <ele>125.06</ele>
        <time>2015-03-13T13:41:24Z</time>
      </trkpt>
      <trkpt lat="47.88035" lon="-2.51879">
        <ele>125.18</ele>
        <time>2015-03-13T13:41:40Z</time>
      </trkpt>
      <trkpt lat="47.88041" lon="-2.51905">
        <ele>125.4</ele>
        <time>2015-03-13T13:41:53Z</time>
      </trkpt>
      <trkpt lat="47.88047" lon="-2.51931">
        <ele>125.26</ele>
        <time>2015-03-13T13:42:08Z</time>
      </trkpt>
      <trkpt lat="47.88053" lon="-2.51956">
        <ele>125.72</ele>
        <time>2015-03-13T13:42:42Z</time>
      </trkpt>
      <trkpt lat="47.8806" lon="-2.51984">
        <ele>124.84</ele>
        <time>2015-03-13T13:43:25Z</time>
      </trkpt>
      <trkpt lat="47.88066" lon="-2.5201">
        <ele>124.86</ele>
        <time>2015-03-13T13:44:04Z</time>
      </trkpt>
      <trkpt lat="47.88048" lon="-2.5202">
        <ele>123.6</ele>
        <time>2015-03-13T13:44:21Z</time>
      </trkpt>
      <trkpt lat="47.8803" lon="-2.52024">
        <ele>122.1</ele>
        <time>2015-03-13T13:44:39Z</time>
      </trkpt>
      <trkpt lat="47.88012" lon="-2.52029">
        <ele>121.35</ele>
        <time>2015-03-13T13:44:53Z</time>
      </trkpt>
      <trkpt lat="47.87993" lon="-2.52033">
        <ele>121.5</ele>
        <time>2015-03-13T13:45:09Z</time>
      </trkpt>
      <trkpt lat="47.87974" lon="-2.52035">
        <ele>120.86</ele>
        <time>2015-03-13T13:45:25Z</time>
      </trkpt>
      <trkpt lat="47.87956" lon="-2.5204">
        <ele>119.9</ele>
        <time>2015-03-13T13:45:42Z</time>
      </trkpt>
      <trkpt lat="47.87937" lon="-2.52044">
        <ele>119.65</ele>
        <time>2015-03-13T13:45:59Z</time>
      </trkpt>
      <trkpt lat="47.87918" lon="-2.52049">
        <ele>119.01</ele>
        <time>2015-03-13T13:46:17Z</time>
      </trkpt>
      <trkpt lat="47.87902" lon="-2.52061">
        <ele>117.42</ele>
        <time>2015-03-13T13:46:36Z</time>
      </trkpt>
      <trkpt lat="47.87886" lon="-2.52075">
        <ele>118</ele>
        <time>2015-03-13T13:47:08Z</time>
      </trkpt>
      <trkpt lat="47.87872" lon="-2.52094">
        <ele>119.27</ele>
        <time>2015-03-13T13:47:45Z</time>
      </trkpt>
      <trkpt lat="47.87857" lon="-2.5211">
        <ele>120.71</ele>
        <time>2015-03-13T13:48:13Z</time>
      </trkpt>
      <trkpt lat="47.87842" lon="-2.52124">
        <ele>121.03</ele>
        <time>2015-03-13T13:48:30Z</time>
      </trkpt>
      <trkpt lat="47.87827" lon="-2.5214">
        <ele>123.25</ele>
        <time>2015-03-13T13:48:53Z</time>
      </trkpt>
      <trkpt lat="47.87809" lon="-2.5213">
        <ele>123.56</ele>
        <time>2015-03-13T13:50:16Z</time>
      </trkpt>
      <trkpt lat="47.87793" lon="-2.5212">
        <ele>122.91</ele>
        <time>2015-03-13T13:50:34Z</time>
      </trkpt>
      <trkpt lat="47.87784" lon="-2.52143">
        <ele>122.22</ele>
        <time>2015-03-13T13:50:46Z</time>
      </trkpt>
      <trkpt lat="47.87765" lon="-2.52135">
        <ele>120.66</ele>
        <time>2015-03-13T13:51:09Z</time>
      </trkpt>
      <trkpt lat="47.8775" lon="-2.5212">
        <ele>121.02</ele>
        <time>2015-03-13T13:51:24Z</time>
      </trkpt>
      <trkpt lat="47.87749" lon="-2.52147">
        <ele>121.17</ele>
        <time>2015-03-13T13:51:35Z</time>
      </trkpt>
      <trkpt lat="47.87766" lon="-2.52157">
        <ele>125.02</ele>
        <time>2015-03-13T13:52:05Z</time>
      </trkpt>
      <trkpt lat="47.87765" lon="-2.52186">
        <ele>126.07</ele>
        <time>2015-03-13T13:52:24Z</time>
      </trkpt>
      <trkpt lat="47.87748" lon="-2.52194">
        <ele>124.33</ele>
        <time>2015-03-13T13:52:40Z</time>
      </trkpt>
      <trkpt lat="47.87732" lon="-2.52212">
        <ele>123.77</ele>
        <time>2015-03-13T13:53:01Z</time>
      </trkpt>
      <trkpt lat="47.87721" lon="-2.52234">
        <ele>125.29</ele>
        <time>2015-03-13T13:53:21Z</time>
      </trkpt>
      <trkpt lat="47.87707" lon="-2.52217">
        <ele>125.86</ele>
        <time>2015-03-13T13:53:35Z</time>
      </trkpt>
      <trkpt lat="47.87692" lon="-2.522">
        <ele>125.85</ele>
        <time>2015-03-13T13:53:53Z</time>
      </trkpt>
      <trkpt lat="47.87682" lon="-2.52223">
        <ele>123.83</ele>
        <time>2015-03-13T13:54:21Z</time>
      </trkpt>
      <trkpt lat="47.87688" lon="-2.5225">
        <ele>125.36</ele>
        <time>2015-03-13T13:55:04Z</time>
      </trkpt>
      <trkpt lat="47.87672" lon="-2.52263">
        <ele>126.56</ele>
        <time>2015-03-13T13:55:28Z</time>
      </trkpt>
      <trkpt lat="47.87663" lon="-2.52239">
        <ele>126.76</ele>
        <time>2015-03-13T13:55:46Z</time>
      </trkpt>
      <trkpt lat="47.87649" lon="-2.52259">
        <ele>126.81</ele>
        <time>2015-03-13T13:56:17Z</time>
      </trkpt>
      <trkpt lat="47.87631" lon="-2.52269">
        <ele>123.34</ele>
        <time>2015-03-13T13:57:34Z</time>
      </trkpt>
      <trkpt lat="47.87626" lon="-2.52297">
        <ele>125.13</ele>
        <time>2015-03-13T13:57:46Z</time>
      </trkpt>
      <trkpt lat="47.87622" lon="-2.52324">
        <ele>129.74</ele>
        <time>2015-03-13T13:58:01Z</time>
      </trkpt>
      <trkpt lat="47.87619" lon="-2.52352">
        <ele>133.04</ele>
        <time>2015-03-13T13:58:23Z</time>
      </trkpt>
      <trkpt lat="47.8762" lon="-2.52379">
        <ele>133.63</ele>
        <time>2015-03-13T13:58:42Z</time>
      </trkpt>
      <trkpt lat="47.8762" lon="-2.52407">
        <ele>134.09</ele>
        <time>2015-03-13T13:58:58Z</time>
      </trkpt>
      <trkpt lat="47.87616" lon="-2.52434">
        <ele>133.92</ele>
        <time>2015-03-13T13:59:16Z</time>
      </trkpt>
      <trkpt lat="47.87615" lon="-2.52462">
        <ele>133</ele>
        <time>2015-03-13T13:59:34Z</time>
      </trkpt>
      <trkpt lat="47.87615" lon="-2.52489">
        <ele>133.59</ele>
        <time>2015-03-13T13:59:48Z</time>
      </trkpt>
      <trkpt lat="47.87614" lon="-2.52518">
        <ele>135.04</ele>
        <time>2015-03-13T14:00:02Z</time>
      </trkpt>
      <trkpt lat="47.87611" lon="-2.52545">
        <ele>136.62</ele>
        <time>2015-03-13T14:00:19Z</time>
      </trkpt>
      <trkpt lat="47.87608" lon="-2.52572">
        <ele>137.68</ele>
        <time>2015-03-13T14:00:35Z</time>
      </trkpt>
      <trkpt lat="47.87603" lon="-2.52598">
        <ele>138.27</ele>
        <time>2015-03-13T14:00:52Z</time>
      </trkpt>
      <trkpt lat="47.87601" lon="-2.52626">
        <ele>139.05</ele>
        <time>2015-03-13T14:01:06Z</time>
      </trkpt>
      <trkpt lat="47.87603" lon="-2.52652">
        <ele>140.01</ele>
        <time>2015-03-13T14:01:21Z</time>
      </trkpt>
      <trkpt lat="47.87604" lon="-2.52679">
        <ele>138.86</ele>
        <time>2015-03-13T14:01:37Z</time>
      </trkpt>
      <trkpt lat="47.87606" lon="-2.52706">
        <ele>136.71</ele>
        <time>2015-03-13T14:02:09Z</time>
      </trkpt>
      <trkpt lat="47.87605" lon="-2.52733">
        <ele>135.44</ele>
        <time>2015-03-13T14:02:24Z</time>
      </trkpt>
      <trkpt lat="47.87606" lon="-2.52761">
        <ele>134.61</ele>
        <time>2015-03-13T14:02:42Z</time>
      </trkpt>
      <trkpt lat="47.87607" lon="-2.52789">
        <ele>134.63</ele>
        <time>2015-03-13T14:02:59Z</time>
      </trkpt>
      <trkpt lat="47.87606" lon="-2.52816">
        <ele>134.2</ele>
        <time>2015-03-13T14:03:20Z</time>
      </trkpt>
      <trkpt lat="47.87608" lon="-2.52843">
        <ele>135.15</ele>
        <time>2015-03-13T14:03:39Z</time>
      </trkpt>
      <trkpt lat="47.87614" lon="-2.52869">
        <ele>136.27</ele>
        <time>2015-03-13T14:04:02Z</time>
      </trkpt>
      <trkpt lat="47.87618" lon="-2.52896">
        <ele>137.66</ele>
        <time>2015-03-13T14:04:20Z</time>
      </trkpt>
      <trkpt lat="47.87623" lon="-2.52923">
        <ele>139.1</ele>
        <time>2015-03-13T14:04:40Z</time>
      </trkpt>
      <trkpt lat="47.87626" lon="-2.5295">
        <ele>141.06</ele>
        <time>2015-03-13T14:04:58Z</time>
      </trkpt>
      <trkpt lat="47.87629" lon="-2.52977">
        <ele>142.78</ele>
        <time>2015-03-13T14:05:13Z</time>
      </trkpt>
      <trkpt lat="47.87636" lon="-2.53003">
        <ele>144.58</ele>
        <time>2015-03-13T14:05:30Z</time>
      </trkpt>
      <trkpt lat="47.87641" lon="-2.53028">
        <ele>145.44</ele>
        <time>2015-03-13T14:05:47Z</time>
      </trkpt>
      <trkpt lat="47.87646" lon="-2.53054">
        <ele>145.18</ele>
        <time>2015-03-13T14:06:11Z</time>
      </trkpt>
      <trkpt lat="47.8765" lon="-2.53081">
        <ele>145.63</ele>
        <time>2015-03-13T14:06:27Z</time>
      </trkpt>
      <trkpt lat="47.87653" lon="-2.53107">
        <ele>145.21</ele>
        <time>2015-03-13T14:06:46Z</time>
      </trkpt>
      <trkpt lat="47.87652" lon="-2.53135">
        <ele>143.67</ele>
        <time>2015-03-13T14:07:03Z</time>
      </trkpt>
      <trkpt lat="47.87634" lon="-2.53139">
        <ele>142.71</ele>
        <time>2015-03-13T14:07:19Z</time>
      </trkpt>
      <trkpt lat="47.87616" lon="-2.53144">
        <ele>141.8</ele>
        <time>2015-03-13T14:07:37Z</time>
      </trkpt>
      <trkpt lat="47.87598" lon="-2.53155">
        <ele>141.28</ele>
        <time>2015-03-13T14:07:53Z</time>
      </trkpt>
      <trkpt lat="47.8758" lon="-2.53162">
        <ele>140.57</ele>
        <time>2015-03-13T14:08:10Z</time>
      </trkpt>
      <trkpt lat="47.87562" lon="-2.53167">
        <ele>141.25</ele>
        <time>2015-03-13T14:08:25Z</time>
      </trkpt>
      <trkpt lat="47.87544" lon="-2.53174">
        <ele>142.27</ele>
        <time>2015-03-13T14:08:46Z</time>
      </trkpt>
      <trkpt lat="47.87527" lon="-2.53181">
        <ele>142.65</ele>
        <time>2015-03-13T14:09:04Z</time>
      </trkpt>
      <trkpt lat="47.87508" lon="-2.53185">
        <ele>141.88</ele>
        <time>2015-03-13T14:09:20Z</time>
      </trkpt>
      <trkpt lat="47.87491" lon="-2.53173">
        <ele>140.64</ele>
        <time>2015-03-13T14:09:44Z</time>
      </trkpt>
      <trkpt lat="47.87483" lon="-2.5315">
        <ele>140.56</ele>
        <time>2015-03-13T14:09:59Z</time>
      </trkpt>
      <trkpt lat="47.87473" lon="-2.53127">
        <ele>140.78</ele>
        <time>2015-03-13T14:10:13Z</time>
      </trkpt>
      <trkpt lat="47.87458" lon="-2.53109">
        <ele>140.41</ele>
        <time>2015-03-13T14:10:32Z</time>
      </trkpt>
      <trkpt lat="47.87441" lon="-2.53098">
        <ele>140.06</ele>
        <time>2015-03-13T14:10:47Z</time>
      </trkpt>
      <trkpt lat="47.87423" lon="-2.53089">
        <ele>139.18</ele>
        <time>2015-03-13T14:11:11Z</time>
      </trkpt>
      <trkpt lat="47.87407" lon="-2.53079">
        <ele>139.3</ele>
        <time>2015-03-13T14:11:26Z</time>
      </trkpt>
      <trkpt lat="47.87389" lon="-2.53065">
        <ele>138.53</ele>
        <time>2015-03-13T14:11:43Z</time>
      </trkpt>
      <trkpt lat="47.87377" lon="-2.53089">
        <ele>137.37</ele>
        <time>2015-03-13T14:12:37Z</time>
      </trkpt>
      <trkpt lat="47.8737" lon="-2.53115">
        <ele>137.83</ele>
        <time>2015-03-13T14:12:51Z</time>
      </trkpt>
      <trkpt lat="47.87354" lon="-2.53128">
        <ele>140.23</ele>
        <time>2015-03-13T14:13:09Z</time>
      </trkpt>
      <trkpt lat="47.87339" lon="-2.53144">
        <ele>141.87</ele>
        <time>2015-03-13T14:13:32Z</time>
      </trkpt>
      <trkpt lat="47.87323" lon="-2.53129">
        <ele>141.04</ele>
        <time>2015-03-13T14:13:58Z</time>
      </trkpt>
      <trkpt lat="47.87319" lon="-2.53103">
        <ele>141.29</ele>
        <time>2015-03-13T14:14:13Z</time>
      </trkpt>
      <trkpt lat="47.87322" lon="-2.53076">
        <ele>140.27</ele>
        <time>2015-03-13T14:14:49Z</time>
      </trkpt>
      <trkpt lat="47.87338" lon="-2.53062">
        <ele>139.1</ele>
        <time>2015-03-13T14:15:20Z</time>
      </trkpt>
      <trkpt lat="47.87348" lon="-2.5304">
        <ele>139.23</ele>
        <time>2015-03-13T14:15:36Z</time>
      </trkpt>
      <trkpt lat="47.87359" lon="-2.53018">
        <ele>138.71</ele>
        <time>2015-03-13T14:15:56Z</time>
      </trkpt>
      <trkpt lat="47.87361" lon="-2.52991">
        <ele>137.71</ele>
        <time>2015-03-13T14:16:13Z</time>
      </trkpt>
      <trkpt lat="47.87361" lon="-2.52964">
        <ele>135.91</ele>
        <time>2015-03-13T14:16:30Z</time>
      </trkpt>
      <trkpt lat="47.87364" lon="-2.52937">
        <ele>134.1</ele>
        <time>2015-03-13T14:16:45Z</time>
      </trkpt>
      <trkpt lat="47.87366" lon="-2.5291">
        <ele>132.87</ele>
        <time>2015-03-13T14:17:00Z</time>
      </trkpt>
      <trkpt lat="47.8737" lon="-2.52884">
        <ele>132.81</ele>
        <time>2015-03-13T14:17:13Z</time>
      </trkpt>
      <trkpt lat="47.8736" lon="-2.5286">
        <ele>132.04</ele>
        <time>2015-03-13T14:17:32Z</time>
      </trkpt>
      <trkpt lat="47.87344" lon="-2.52847">
        <ele>130.85</ele>
        <time>2015-03-13T14:17:47Z</time>
      </trkpt>
      <trkpt lat="47.87329" lon="-2.52832">
        <ele>130.05</ele>
        <time>2015-03-13T14:18:08Z</time>
      </trkpt>
      <trkpt lat="47.87315" lon="-2.52815">
        <ele>129.14</ele>
        <time>2015-03-13T14:18:22Z</time>
      </trkpt>
      <trkpt lat="47.87298" lon="-2.528">
        <ele>129.39</ele>
        <time>2015-03-13T14:18:35Z</time>
      </trkpt>
      <trkpt lat="47.87281" lon="-2.52786">
        <ele>130.81</ele>
        <time>2015-03-13T14:18:51Z</time>
      </trkpt>
      <trkpt lat="47.87265" lon="-2.52771">
        <ele>131.6</ele>
        <time>2015-03-13T14:19:12Z</time>
      </trkpt>
      <trkpt lat="47.8725" lon="-2.52756">
        <ele>129.54</ele>
        <time>2015-03-13T14:19:30Z</time>
      </trkpt>
      <trkpt lat="47.87234" lon="-2.52743">
        <ele>128.55</ele>
        <time>2015-03-13T14:19:45Z</time>
      </trkpt>
      <trkpt lat="47.87226" lon="-2.52717">
        <ele>127.44</ele>
        <time>2015-03-13T14:20:00Z</time>
      </trkpt>
      <trkpt lat="47.87232" lon="-2.5269">
        <ele>126.98</ele>
        <time>2015-03-13T14:20:18Z</time>
      </trkpt>
      <trkpt lat="47.87244" lon="-2.52669">
        <ele>128.11</ele>
        <time>2015-03-13T14:20:33Z</time>
      </trkpt>
      <trkpt lat="47.87249" lon="-2.52641">
        <ele>127.85</ele>
        <time>2015-03-13T14:20:50Z</time>
      </trkpt>
      <trkpt lat="47.87254" lon="-2.52615">
        <ele>126.1</ele>
        <time>2015-03-13T14:21:05Z</time>
      </trkpt>
      <trkpt lat="47.87256" lon="-2.52587">
        <ele>125.72</ele>
        <time>2015-03-13T14:21:19Z</time>
      </trkpt>
      <trkpt lat="47.87264" lon="-2.52563">
        <ele>124.87</ele>
        <time>2015-03-13T14:21:35Z</time>
      </trkpt>
      <trkpt lat="47.87269" lon="-2.52535">
        <ele>122.69</ele>
        <time>2015-03-13T14:21:54Z</time>
      </trkpt>
      <trkpt lat="47.87279" lon="-2.52511">
        <ele>121.37</ele>
        <time>2015-03-13T14:22:27Z</time>
      </trkpt>
      <trkpt lat="47.87295" lon="-2.52495">
        <ele>121.41</ele>
        <time>2015-03-13T14:22:43Z</time>
      </trkpt>
      <trkpt lat="47.87309" lon="-2.52478">
        <ele>122</ele>
        <time>2015-03-13T14:22:59Z</time>
      </trkpt>
      <trkpt lat="47.87324" lon="-2.5246">
        <ele>121.63</ele>
        <time>2015-03-13T14:23:15Z</time>
      </trkpt>
      <trkpt lat="47.87325" lon="-2.52433">
        <ele>121.83</ele>
        <time>2015-03-13T14:23:32Z</time>
      </trkpt>
      <trkpt lat="47.87314" lon="-2.52411">
        <ele>121.67</ele>
        <time>2015-03-13T14:24:48Z</time>
      </trkpt>
      <trkpt lat="47.87329" lon="-2.52395">
        <ele>127.07</ele>
        <time>2015-03-13T14:26:33Z</time>
      </trkpt>
      <trkpt lat="47.87336" lon="-2.52371">
        <ele>127.07</ele>
        <time>2015-03-13T14:28:36Z</time>
      </trkpt>
      <trkpt lat="47.87354" lon="-2.52368">
        <ele>127.98</ele>
        <time>2015-03-13T14:30:24Z</time>
      </trkpt>
      <trkpt lat="47.87371" lon="-2.52355">
        <ele>129</ele>
        <time>2015-03-13T14:30:34Z</time>
      </trkpt>
      <trkpt lat="47.87385" lon="-2.52337">
        <ele>128.8</ele>
        <time>2015-03-13T14:30:48Z</time>
      </trkpt>
      <trkpt lat="47.87398" lon="-2.52318">
        <ele>127.34</ele>
        <time>2015-03-13T14:31:06Z</time>
      </trkpt>
      <trkpt lat="47.87411" lon="-2.52299">
        <ele>125.21</ele>
        <time>2015-03-13T14:31:24Z</time>
      </trkpt>
      <trkpt lat="47.87426" lon="-2.52282">
        <ele>122.75</ele>
        <time>2015-03-13T14:31:38Z</time>
      </trkpt>
      <trkpt lat="47.87436" lon="-2.52259">
        <ele>122.98</ele>
        <time>2015-03-13T14:31:52Z</time>
      </trkpt>
      <trkpt lat="47.87448" lon="-2.52238">
        <ele>124.26</ele>
        <time>2015-03-13T14:32:05Z</time>
      </trkpt>
      <trkpt lat="47.87461" lon="-2.52218">
        <ele>124.59</ele>
        <time>2015-03-13T14:32:27Z</time>
      </trkpt>
      <trkpt lat="47.87476" lon="-2.522">
        <ele>123.11</ele>
        <time>2015-03-13T14:32:42Z</time>
      </trkpt>
      <trkpt lat="47.87487" lon="-2.52179">
        <ele>125.32</ele>
        <time>2015-03-13T14:33:02Z</time>
      </trkpt>
      <trkpt lat="47.87504" lon="-2.52165">
        <ele>120.66</ele>
        <time>2015-03-13T14:33:28Z</time>
      </trkpt>
      <trkpt lat="47.87518" lon="-2.52148">
        <ele>122.94</ele>
        <time>2015-03-13T14:34:01Z</time>
      </trkpt>
      <trkpt lat="47.87525" lon="-2.5212">
        <ele>119.7</ele>
        <time>2015-03-13T14:35:39Z</time>
      </trkpt>
      <trkpt lat="47.87513" lon="-2.52097">
        <ele>119.05</ele>
        <time>2015-03-13T14:39:28Z</time>
      </trkpt>
      <trkpt lat="47.87495" lon="-2.52093">
        <ele>119.47</ele>
        <time>2015-03-13T14:39:36Z</time>
      </trkpt>
      <trkpt lat="47.87479" lon="-2.52107">
        <ele>120.05</ele>
        <time>2015-03-13T14:40:32Z</time>
      </trkpt>
      <trkpt lat="47.87461" lon="-2.52107">
        <ele>121.04</ele>
        <time>2015-03-13T14:40:43Z</time>
      </trkpt>
      <trkpt lat="47.87443" lon="-2.52118">
        <ele>121.88</ele>
        <time>2015-03-13T14:40:52Z</time>
      </trkpt>
      <trkpt lat="47.87432" lon="-2.52144">
        <ele>123.35</ele>
        <time>2015-03-13T14:41:22Z</time>
      </trkpt>
      <trkpt lat="47.87419" lon="-2.52164">
        <ele>123.8</ele>
        <time>2015-03-13T14:41:28Z</time>
      </trkpt>
      <trkpt lat="47.87401" lon="-2.52163">
        <ele>124.07</ele>
        <time>2015-03-13T14:41:41Z</time>
      </trkpt>
      <trkpt lat="47.87396" lon="-2.52189">
        <ele>123.4</ele>
        <time>2015-03-13T14:41:54Z</time>
      </trkpt>
      <trkpt lat="47.87392" lon="-2.52218">
        <ele>124.5</ele>
        <time>2015-03-13T14:42:18Z</time>
      </trkpt>
      <trkpt lat="47.8739" lon="-2.52247">
        <ele>128.19</ele>
        <time>2015-03-13T14:42:46Z</time>
      </trkpt>
      <trkpt lat="47.87385" lon="-2.52275">
        <ele>129.56</ele>
        <time>2015-03-13T14:42:54Z</time>
      </trkpt>
      <trkpt lat="47.87383" lon="-2.52302">
        <ele>131.92</ele>
        <time>2015-03-13T14:43:29Z</time>
      </trkpt>
      <trkpt lat="47.87363" lon="-2.52302">
        <ele>129.69</ele>
        <time>2015-03-13T14:44:30Z</time>
      </trkpt>
      <trkpt lat="47.87346" lon="-2.52296">
        <ele>129.33</ele>
        <time>2015-03-13T14:44:41Z</time>
      </trkpt>
      <trkpt lat="47.8733" lon="-2.52281">
        <ele>127.38</ele>
        <time>2015-03-13T14:45:00Z</time>
      </trkpt>
      <trkpt lat="47.87344" lon="-2.52262">
        <ele>129.06</ele>
        <time>2015-03-13T14:47:14Z</time>
      </trkpt>
      <trkpt lat="47.8735" lon="-2.52289">
        <ele>131.78</ele>
        <time>2015-03-13T14:48:17Z</time>
      </trkpt>
      <trkpt lat="47.87348" lon="-2.52261">
        <ele>127.87</ele>
        <time>2015-03-13T14:50:51Z</time>
      </trkpt>
      <trkpt lat="47.8733" lon="-2.52263">
        <ele>129.11</ele>
        <time>2015-03-13T14:51:14Z</time>
      </trkpt>
      <trkpt lat="47.87329" lon="-2.5229">
        <ele>130.31</ele>
        <time>2015-03-13T14:51:36Z</time>
      </trkpt>
      <trkpt lat="47.87328" lon="-2.52319">
        <ele>130.91</ele>
        <time>2015-03-13T14:52:17Z</time>
      </trkpt>
      <trkpt lat="47.87329" lon="-2.52346">
        <ele>132.54</ele>
        <time>2015-03-13T14:52:31Z</time>
      </trkpt>
      <trkpt lat="47.87329" lon="-2.52374">
        <ele>134.05</ele>
        <time>2015-03-13T14:52:44Z</time>
      </trkpt>
      <trkpt lat="47.87311" lon="-2.52364">
        <ele>130.46</ele>
        <time>2015-03-13T14:54:17Z</time>
      </trkpt>
      <trkpt lat="47.87301" lon="-2.5234">
        <ele>129.76</ele>
        <time>2015-03-13T14:54:25Z</time>
      </trkpt>
      <trkpt lat="47.87287" lon="-2.52324">
        <ele>128.69</ele>
        <time>2015-03-13T14:54:34Z</time>
      </trkpt>
      <trkpt lat="47.87268" lon="-2.52325">
        <ele>127.52</ele>
        <time>2015-03-13T14:54:46Z</time>
      </trkpt>
      <trkpt lat="47.8725" lon="-2.52327">
        <ele>126.52</ele>
        <time>2015-03-13T14:55:01Z</time>
      </trkpt>
      <trkpt lat="47.87231" lon="-2.52333">
        <ele>125.89</ele>
        <time>2015-03-13T14:55:21Z</time>
      </trkpt>
      <trkpt lat="47.87213" lon="-2.52325">
        <ele>125.58</ele>
        <time>2015-03-13T14:55:35Z</time>
      </trkpt>
      <trkpt lat="47.87196" lon="-2.52313">
        <ele>124.83</ele>
        <time>2015-03-13T14:55:50Z</time>
      </trkpt>
      <trkpt lat="47.8718" lon="-2.52296">
        <ele>122.17</ele>
        <time>2015-03-13T14:56:10Z</time>
      </trkpt>
      <trkpt lat="47.87163" lon="-2.52285">
        <ele>120.58</ele>
        <time>2015-03-13T14:56:26Z</time>
      </trkpt>
      <trkpt lat="47.87147" lon="-2.52271">
        <ele>119.37</ele>
        <time>2015-03-13T14:56:42Z</time>
      </trkpt>
      <trkpt lat="47.87132" lon="-2.52253">
        <ele>116.38</ele>
        <time>2015-03-13T14:57:01Z</time>
      </trkpt>
      <trkpt lat="47.87117" lon="-2.52237">
        <ele>113.43</ele>
        <time>2015-03-13T14:57:20Z</time>
      </trkpt>
      <trkpt lat="47.87099" lon="-2.52226">
        <ele>113.04</ele>
        <time>2015-03-13T14:57:51Z</time>
      </trkpt>
      <trkpt lat="47.87082" lon="-2.52237">
        <ele>113.93</ele>
        <time>2015-03-13T14:58:08Z</time>
      </trkpt>
      <trkpt lat="47.87071" lon="-2.52262">
        <ele>113.43</ele>
        <time>2015-03-13T15:01:59Z</time>
      </trkpt>
      <trkpt lat="47.87079" lon="-2.52287">
        <ele>113.88</ele>
        <time>2015-03-13T15:02:13Z</time>
      </trkpt>
      <trkpt lat="47.87085" lon="-2.52315">
        <ele>112.63</ele>
        <time>2015-03-13T15:02:35Z</time>
      </trkpt>
      <trkpt lat="47.87099" lon="-2.52334">
        <ele>113.16</ele>
        <time>2015-03-13T15:02:53Z</time>
      </trkpt>
      <trkpt lat="47.87114" lon="-2.52349">
        <ele>113.53</ele>
        <time>2015-03-13T15:03:11Z</time>
      </trkpt>
      <trkpt lat="47.87133" lon="-2.52354">
        <ele>114.36</ele>
        <time>2015-03-13T15:03:40Z</time>
      </trkpt>
      <trkpt lat="47.87152" lon="-2.52353">
        <ele>115.17</ele>
        <time>2015-03-13T15:03:51Z</time>
      </trkpt>
      <trkpt lat="47.8717" lon="-2.52357">
        <ele>115.9</ele>
        <time>2015-03-13T15:04:13Z</time>
      </trkpt>
      <trkpt lat="47.87188" lon="-2.52363">
        <ele>114.88</ele>
        <time>2015-03-13T15:04:29Z</time>
      </trkpt>
      <trkpt lat="47.87207" lon="-2.52368">
        <ele>114.54</ele>
        <time>2015-03-13T15:04:41Z</time>
      </trkpt>
      <trkpt lat="47.87223" lon="-2.52381">
        <ele>115.67</ele>
        <time>2015-03-13T15:05:24Z</time>
      </trkpt>
      <trkpt lat="47.87243" lon="-2.52391">
        <ele>116.11</ele>
        <time>2015-03-13T15:06:14Z</time>
      </trkpt>
      <trkpt lat="47.87261" lon="-2.52397">
        <ele>115.68</ele>
        <time>2015-03-13T15:06:31Z</time>
      </trkpt>
      <trkpt lat="47.87279" lon="-2.52404">
        <ele>114.85</ele>
        <time>2015-03-13T15:06:45Z</time>
      </trkpt>
      <trkpt lat="47.87296" lon="-2.52411">
        <ele>115.07</ele>
        <time>2015-03-13T15:06:55Z</time>
      </trkpt>
      <trkpt lat="47.87278" lon="-2.52411">
        <ele>115.53</ele>
        <time>2015-03-13T15:09:07Z</time>
      </trkpt>
      <trkpt lat="47.8726" lon="-2.52404">
        <ele>114.27</ele>
        <time>2015-03-13T15:09:25Z</time>
      </trkpt>
      <trkpt lat="47.87242" lon="-2.52395">
        <ele>114.87</ele>
        <time>2015-03-13T15:09:45Z</time>
      </trkpt>
      <trkpt lat="47.87224" lon="-2.52388">
        <ele>116.08</ele>
        <time>2015-03-13T15:10:02Z</time>
      </trkpt>
      <trkpt lat="47.87207" lon="-2.52379">
        <ele>116.16</ele>
        <time>2015-03-13T15:10:12Z</time>
      </trkpt>
      <trkpt lat="47.87187" lon="-2.52371">
        <ele>116.54</ele>
        <time>2015-03-13T15:10:48Z</time>
      </trkpt>
      <trkpt lat="47.87167" lon="-2.52364">
        <ele>116.4</ele>
        <time>2015-03-13T15:11:15Z</time>
      </trkpt>
      <trkpt lat="47.87148" lon="-2.52362">
        <ele>115.7</ele>
        <time>2015-03-13T15:11:22Z</time>
      </trkpt>
      <trkpt lat="47.87129" lon="-2.52355">
        <ele>116.97</ele>
        <time>2015-03-13T15:11:59Z</time>
      </trkpt>
      <trkpt lat="47.87114" lon="-2.52341">
        <ele>115.26</ele>
        <time>2015-03-13T15:12:10Z</time>
      </trkpt>
      <trkpt lat="47.871" lon="-2.5232">
        <ele>112.16</ele>
        <time>2015-03-13T15:12:37Z</time>
      </trkpt>
      <trkpt lat="47.87086" lon="-2.52299">
        <ele>110.77</ele>
        <time>2015-03-13T15:12:41Z</time>
      </trkpt>
      <trkpt lat="47.87073" lon="-2.52277">
        <ele>107.15</ele>
        <time>2015-03-13T15:12:53Z</time>
      </trkpt>
      <trkpt lat="47.87067" lon="-2.5225">
        <ele>105.29</ele>
        <time>2015-03-13T15:13:07Z</time>
      </trkpt>
      <trkpt lat="47.87056" lon="-2.52228">
        <ele>105.42</ele>
        <time>2015-03-13T15:13:29Z</time>
      </trkpt>
      <trkpt lat="47.87046" lon="-2.52203">
        <ele>104.32</ele>
        <time>2015-03-13T15:14:05Z</time>
      </trkpt>
      <trkpt lat="47.87037" lon="-2.52178">
        <ele>104.08</ele>
        <time>2015-03-13T15:14:23Z</time>
      </trkpt>
      <trkpt lat="47.87037" lon="-2.52149">
        <ele>104.21</ele>
        <time>2015-03-13T15:14:39Z</time>
      </trkpt>
      <trkpt lat="47.87018" lon="-2.52155">
        <ele>105.45</ele>
        <time>2015-03-13T15:15:15Z</time>
      </trkpt>
      <trkpt lat="47.86999" lon="-2.5216">
        <ele>105.4</ele>
        <time>2015-03-13T15:15:30Z</time>
      </trkpt>
      <trkpt lat="47.86986" lon="-2.52141">
        <ele>102.35</ele>
        <time>2015-03-13T15:16:05Z</time>
      </trkpt>
      <trkpt lat="47.86967" lon="-2.52147">
        <ele>101.24</ele>
        <time>2015-03-13T15:16:36Z</time>
      </trkpt>
      <trkpt lat="47.86949" lon="-2.52156">
        <ele>103.76</ele>
        <time>2015-03-13T15:16:50Z</time>
      </trkpt>
      <trkpt lat="47.8694" lon="-2.52181">
        <ele>100.42</ele>
        <time>2015-03-13T15:24:23Z</time>
      </trkpt>
      <trkpt lat="47.86943" lon="-2.5221">
        <ele>100.68</ele>
        <time>2015-03-13T15:24:34Z</time>
      </trkpt>
      <trkpt lat="47.86936" lon="-2.52235">
        <ele>102.54</ele>
        <time>2015-03-13T15:24:55Z</time>
      </trkpt>
      <trkpt lat="47.86925" lon="-2.52256">
        <ele>104.46</ele>
        <time>2015-03-13T15:25:16Z</time>
      </trkpt>
      <trkpt lat="47.86921" lon="-2.52283">
        <ele>105.69</ele>
        <time>2015-03-13T15:25:27Z</time>
      </trkpt>
      <trkpt lat="47.86921" lon="-2.5231">
        <ele>106.08</ele>
        <time>2015-03-13T15:25:44Z</time>
      </trkpt>
      <trkpt lat="47.8692" lon="-2.52339">
        <ele>108.26</ele>
        <time>2015-03-13T15:26:10Z</time>
      </trkpt>
      <trkpt lat="47.86915" lon="-2.52365">
        <ele>110.37</ele>
        <time>2015-03-13T15:26:25Z</time>
      </trkpt>
      <trkpt lat="47.86909" lon="-2.52392">
        <ele>111.95</ele>
        <time>2015-03-13T15:26:37Z</time>
      </trkpt>
      <trkpt lat="47.86905" lon="-2.52419">
        <ele>111.42</ele>
        <time>2015-03-13T15:26:51Z</time>
      </trkpt>
      <trkpt lat="47.86896" lon="-2.52442">
        <ele>110.27</ele>
        <time>2015-03-13T15:27:17Z</time>
      </trkpt>
      <trkpt lat="47.86884" lon="-2.52466">
        <ele>111.68</ele>
        <time>2015-03-13T15:27:32Z</time>
      </trkpt>
      <trkpt lat="47.86881" lon="-2.52494">
        <ele>116.99</ele>
        <time>2015-03-13T15:27:57Z</time>
      </trkpt>
      <trkpt lat="47.86871" lon="-2.52516">
        <ele>117.49</ele>
        <time>2015-03-13T15:28:03Z</time>
      </trkpt>
      <trkpt lat="47.86855" lon="-2.52532">
        <ele>117.95</ele>
        <time>2015-03-13T15:28:18Z</time>
      </trkpt>
      <trkpt lat="47.86844" lon="-2.52554">
        <ele>118.47</ele>
        <time>2015-03-13T15:28:48Z</time>
      </trkpt>
      <trkpt lat="47.86837" lon="-2.5258">
        <ele>118.37</ele>
        <time>2015-03-13T15:29:00Z</time>
      </trkpt>
      <trkpt lat="47.86829" lon="-2.52605">
        <ele>119.1</ele>
        <time>2015-03-13T15:29:17Z</time>
      </trkpt>
      <trkpt lat="47.86839" lon="-2.52628">
        <ele>118.66</ele>
        <time>2015-03-13T15:29:37Z</time>
      </trkpt>
      <trkpt lat="47.86842" lon="-2.52655">
        <ele>118.32</ele>
        <time>2015-03-13T15:29:52Z</time>
      </trkpt>
      <trkpt lat="47.86842" lon="-2.52682">
        <ele>119.74</ele>
        <time>2015-03-13T15:30:08Z</time>
      </trkpt>
      <trkpt lat="47.86845" lon="-2.52709">
        <ele>119.38</ele>
        <time>2015-03-13T15:30:30Z</time>
      </trkpt>
      <trkpt lat="47.86846" lon="-2.52735">
        <ele>121.19</ele>
        <time>2015-03-13T15:30:47Z</time>
      </trkpt>
      <trkpt lat="47.86843" lon="-2.52764">
        <ele>122.42</ele>
        <time>2015-03-13T15:31:10Z</time>
      </trkpt>
      <trkpt lat="47.86841" lon="-2.52792">
        <ele>122.43</ele>
        <time>2015-03-13T15:31:32Z</time>
      </trkpt>
      <trkpt lat="47.8684" lon="-2.5282">
        <ele>123.6</ele>
        <time>2015-03-13T15:31:49Z</time>
      </trkpt>
      <trkpt lat="47.86851" lon="-2.52842">
        <ele>128.72</ele>
        <time>2015-03-13T15:32:47Z</time>
      </trkpt>
      <trkpt lat="47.86862" lon="-2.52864">
        <ele>129.44</ele>
        <time>2015-03-13T15:32:56Z</time>
      </trkpt>
      <trkpt lat="47.86876" lon="-2.52881">
        <ele>129.78</ele>
        <time>2015-03-13T15:33:10Z</time>
      </trkpt>
      <trkpt lat="47.8689" lon="-2.529">
        <ele>132.18</ele>
        <time>2015-03-13T15:33:35Z</time>
      </trkpt>
      <trkpt lat="47.86898" lon="-2.52927">
        <ele>134.17</ele>
        <time>2015-03-13T15:34:01Z</time>
      </trkpt>
      <trkpt lat="47.869" lon="-2.52954">
        <ele>135.01</ele>
        <time>2015-03-13T15:34:24Z</time>
      </trkpt>
      <trkpt lat="47.86886" lon="-2.52973">
        <ele>139.52</ele>
        <time>2015-03-13T15:34:54Z</time>
      </trkpt>
      <trkpt lat="47.86867" lon="-2.5297">
        <ele>140.71</ele>
        <time>2015-03-13T15:35:08Z</time>
      </trkpt>
      <trkpt lat="47.86849" lon="-2.52978">
        <ele>142.88</ele>
        <time>2015-03-13T15:35:20Z</time>
      </trkpt>
      <trkpt lat="47.86832" lon="-2.52993">
        <ele>143.47</ele>
        <time>2015-03-13T15:35:37Z</time>
      </trkpt>
      <trkpt lat="47.86815" lon="-2.53003">
        <ele>140.96</ele>
        <time>2015-03-13T15:35:58Z</time>
      </trkpt>
      <trkpt lat="47.86799" lon="-2.53016">
        <ele>140.39</ele>
        <time>2015-03-13T15:36:16Z</time>
      </trkpt>
      <trkpt lat="47.86782" lon="-2.53026">
        <ele>139.8</ele>
        <time>2015-03-13T15:36:32Z</time>
      </trkpt>
      <trkpt lat="47.86763" lon="-2.53031">
        <ele>140.74</ele>
        <time>2015-03-13T15:36:52Z</time>
      </trkpt>
      <trkpt lat="47.86748" lon="-2.53016">
        <ele>139.53</ele>
        <time>2015-03-13T15:37:05Z</time>
      </trkpt>
      <trkpt lat="47.86731" lon="-2.53006">
        <ele>136.82</ele>
        <time>2015-03-13T15:37:27Z</time>
      </trkpt>
      <trkpt lat="47.86715" lon="-2.52993">
        <ele>137.85</ele>
        <time>2015-03-13T15:37:46Z</time>
      </trkpt>
      <trkpt lat="47.86703" lon="-2.52971">
        <ele>137.32</ele>
        <time>2015-03-13T15:38:09Z</time>
      </trkpt>
      <trkpt lat="47.86685" lon="-2.52958">
        <ele>138.95</ele>
        <time>2015-03-13T15:38:26Z</time>
      </trkpt>
      <trkpt lat="47.86672" lon="-2.52938">
        <ele>139.72</ele>
        <time>2015-03-13T15:38:44Z</time>
      </trkpt>
      <trkpt lat="47.86666" lon="-2.52913">
        <ele>137.1</ele>
        <time>2015-03-13T15:39:04Z</time>
      </trkpt>
      <trkpt lat="47.86656" lon="-2.52889">
        <ele>138.23</ele>
        <time>2015-03-13T15:39:20Z</time>
      </trkpt>
      <trkpt lat="47.86638" lon="-2.52882">
        <ele>137.76</ele>
        <time>2015-03-13T15:39:35Z</time>
      </trkpt>
      <trkpt lat="47.86621" lon="-2.52875">
        <ele>137.71</ele>
        <time>2015-03-13T15:39:53Z</time>
      </trkpt>
      <trkpt lat="47.86604" lon="-2.52867">
        <ele>138.92</ele>
        <time>2015-03-13T15:40:09Z</time>
      </trkpt>
      <trkpt lat="47.86586" lon="-2.52854">
        <ele>139.66</ele>
        <time>2015-03-13T15:40:27Z</time>
      </trkpt>
      <trkpt lat="47.86568" lon="-2.52846">
        <ele>140.31</ele>
        <time>2015-03-13T15:40:42Z</time>
      </trkpt>
      <trkpt lat="47.86551" lon="-2.52835">
        <ele>140.89</ele>
        <time>2015-03-13T15:40:59Z</time>
      </trkpt>
      <trkpt lat="47.86533" lon="-2.52826">
        <ele>141.52</ele>
        <time>2015-03-13T15:41:13Z</time>
      </trkpt>
      <trkpt lat="47.86517" lon="-2.52814">
        <ele>141.88</ele>
        <time>2015-03-13T15:41:29Z</time>
      </trkpt>
      <trkpt lat="47.865" lon="-2.52802">
        <ele>142.18</ele>
        <time>2015-03-13T15:41:46Z</time>
      </trkpt>
      <trkpt lat="47.86483" lon="-2.52793">
        <ele>141.29</ele>
        <time>2015-03-13T15:42:01Z</time>
      </trkpt>
      <trkpt lat="47.86465" lon="-2.52784">
        <ele>140.78</ele>
        <time>2015-03-13T15:42:19Z</time>
      </trkpt>
      <trkpt lat="47.86449" lon="-2.52772">
        <ele>140.32</ele>
        <time>2015-03-13T15:42:36Z</time>
      </trkpt>
      <trkpt lat="47.86431" lon="-2.52765">
        <ele>139.51</ele>
        <time>2015-03-13T15:42:51Z</time>
      </trkpt>
      <trkpt lat="47.86413" lon="-2.52758">
        <ele>139.23</ele>
        <time>2015-03-13T15:43:07Z</time>
      </trkpt>
      <trkpt lat="47.86395" lon="-2.52751">
        <ele>139.8</ele>
        <time>2015-03-13T15:43:23Z</time>
      </trkpt>
      <trkpt lat="47.86376" lon="-2.5275">
        <ele>139.82</ele>
        <time>2015-03-13T15:43:44Z</time>
      </trkpt>
      <trkpt lat="47.86357" lon="-2.52746">
        <ele>140.01</ele>
        <time>2015-03-13T15:43:59Z</time>
      </trkpt>
      <trkpt lat="47.86339" lon="-2.52741">
        <ele>140.47</ele>
        <time>2015-03-13T15:44:15Z</time>
      </trkpt>
      <trkpt lat="47.86335" lon="-2.52713">
        <ele>139.23</ele>
        <time>2015-03-13T15:44:37Z</time>
      </trkpt>
      <trkpt lat="47.86345" lon="-2.5269">
        <ele>138.78</ele>
        <time>2015-03-13T15:45:03Z</time>
      </trkpt>
      <trkpt lat="47.86342" lon="-2.52664">
        <ele>139.3</ele>
        <time>2015-03-13T15:45:27Z</time>
      </trkpt>
      <trkpt lat="47.86327" lon="-2.52647">
        <ele>138.8</ele>
        <time>2015-03-13T15:45:43Z</time>
      </trkpt>
      <trkpt lat="47.86311" lon="-2.52632">
        <ele>139.41</ele>
        <time>2015-03-13T15:46:08Z</time>
      </trkpt>
      <trkpt lat="47.86301" lon="-2.52609">
        <ele>138.73</ele>
        <time>2015-03-13T15:46:28Z</time>
      </trkpt>
      <trkpt lat="47.86308" lon="-2.52584">
        <ele>138.29</ele>
        <time>2015-03-13T15:46:48Z</time>
      </trkpt>
      <trkpt lat="47.86318" lon="-2.52561">
        <ele>139.98</ele>
        <time>2015-03-13T15:47:17Z</time>
      </trkpt>
      <trkpt lat="47.86336" lon="-2.5255">
        <ele>140.94</ele>
        <time>2015-03-13T15:47:41Z</time>
      </trkpt>
      <trkpt lat="47.86354" lon="-2.52542">
        <ele>139.57</ele>
        <time>2015-03-13T15:47:58Z</time>
      </trkpt>
      <trkpt lat="47.8637" lon="-2.52527">
        <ele>138.9</ele>
        <time>2015-03-13T15:48:27Z</time>
      </trkpt>
      <trkpt lat="47.86386" lon="-2.5251">
        <ele>137.35</ele>
        <time>2015-03-13T15:48:47Z</time>
      </trkpt>
      <trkpt lat="47.86403" lon="-2.52499">
        <ele>137.36</ele>
        <time>2015-03-13T15:49:01Z</time>
      </trkpt>
      <trkpt lat="47.86413" lon="-2.52476">
        <ele>137.8</ele>
        <time>2015-03-13T15:50:58Z</time>
      </trkpt>
      <trkpt lat="47.8642" lon="-2.5245">
        <ele>136.54</ele>
        <time>2015-03-13T15:51:30Z</time>
      </trkpt>
      <trkpt lat="47.86424" lon="-2.52423">
        <ele>134.19</ele>
        <time>2015-03-13T15:51:54Z</time>
      </trkpt>
      <trkpt lat="47.86425" lon="-2.52395">
        <ele>133.64</ele>
        <time>2015-03-13T15:52:10Z</time>
      </trkpt>
      <trkpt lat="47.86429" lon="-2.52369">
        <ele>134.05</ele>
        <time>2015-03-13T15:52:29Z</time>
      </trkpt>
      <trkpt lat="47.86439" lon="-2.52345">
        <ele>129.2</ele>
        <time>2015-03-13T15:53:19Z</time>
      </trkpt>
      <trkpt lat="47.86443" lon="-2.52318">
        <ele>129.08</ele>
        <time>2015-03-13T15:53:33Z</time>
      </trkpt>
      <trkpt lat="47.86443" lon="-2.52291">
        <ele>129.56</ele>
        <time>2015-03-13T15:53:48Z</time>
      </trkpt>
      <trkpt lat="47.86425" lon="-2.52291">
        <ele>128.66</ele>
        <time>2015-03-13T15:54:27Z</time>
      </trkpt>
    </trkseg>
  </trk>
</gpx>